Terminal Aerodrome Forecast
Issued by NWS Wilmington, OH

Current Version | Previous Version | Graphics & Text | Print | Product List | Glossary On
Versions: 1 2 3 4 5 6 7 8 9 10 11 12 13 14 15 16 17 18 19 20 21 22 23 24 25 26 27
000
FTUS41 KILN 232000 AAA
TAFCVG
TAF AMD
KCVG 232059Z 2321/2424 VRB03KT P6SM SCT150 BKN250
     FM232300 VRB03KT P6SM BKN150
     FM241600 24005KT P6SM BKN050=

USA.gov is the U.S. government's official web portal to all federal, state and local government web resources and services.